Pagrindinis puslapis
METAR-TAF:

METAR-TAF

Oro uostai :

Oro pajėgų bazė

Santosas, San Paulas, Brazilija

platuma: 23-56S, ilguma: 046-18W, Aukštis: 3 m

Dabartinis oras

Ataskaita buvo paskelbta 1 valandą ir 7 minutes, ne 21:00 UTC
Vėjas 3 kt iš Pietvakarių, svyruoja nuo Pietų ir Vakarų/Pietvakarių
Temperatūra 23°C
Drėgmė 89%
Slėgis 1012 hPa
Matomumas: 4000 m
rūkana

METAR: SBST 162100Z 23003KT 180V250 4000 BR NSC 23/21 Q1012

Laikas: 19:07 (22:07 UTC)


TAF: trūkstamas

Orai ataskaitas ir orų prognozės (METAR, TAF).

turimą stotys yra geltonos ir raudonos taškus žemėlapyje.

Perkelti pele per norėdami pamatyti stoties vardą.

Tada spustelėkite, norėdami matyti oro stebėjimo ir prognozės.

Norėdami pakeisti žemėlapį: spustelėkite ant žalios mygtukų su juodo kryžiaus žemyn,; žalią mygtuką su brūkšneliu, jei norite nutolinti; arba žalių rodyklių gretimoms žemėlapius.


METAR-TAF: